sensor_id;sensor_type;location;lat;lon;timestamp;temperature;humidity
44767;DHT22;30487;48.716;9.272;2022-12-07T00:02:25;4.00;99.90
44767;DHT22;30487;48.716;9.272;2022-12-07T00:04:50;4.00;99.90
44767;DHT22;30487;48.716;9.272;2022-12-07T00:07:16;4.00;99.90
44767;DHT22;30487;48.716;9.272;2022-12-07T00:09:42;4.00;99.90
44767;DHT22;30487;48.716;9.272;2022-12-07T00:12:07;4.10;99.90
44767;DHT22;30487;48.716;9.272;2022-12-07T00:14:33;4.10;99.90
44767;DHT22;30487;48.716;9.272;2022-12-07T00:16:59;4.00;99.90
44767;DHT22;30487;48.716;9.272;2022-12-07T00:19:24;4.10;99.90
44767;DHT22;30487;48.716;9.272;2022-12-07T00:21:50;4.10;99.90
44767;DHT22;30487;48.716;9.272;2022-12-07T00:24:15;4.10;99.90
44767;DHT22;30487;48.716;9.272;2022-12-07T00:26:42;4.00;99.90
44767;DHT22;30487;48.716;9.272;2022-12-07T00:29:19;4.10;99.90
44767;DHT22;30487;48.716;9.272;2022-12-07T00:31:45;4.10;99.90
44767;DHT22;30487;48.716;9.272;2022-12-07T00:34:14;4.10;99.90
44767;DHT22;30487;48.716;9.272;2022-12-07T00:36:39;4.10;99.90
44767;DHT22;30487;48.716;9.272;2022-12-07T00:39:05;4.10;99.90
44767;DHT22;30487;48.716;9.272;2022-12-07T00:41:31;4.10;99.90
44767;DHT22;30487;48.716;9.272;2022-12-07T00:43:57;4.10;99.90
44767;DHT22;30487;48.716;9.272;2022-12-07T00:46:23;4.10;99.90
44767;DHT22;30487;48.716;9.272;2022-12-07T00:48:50;4.10;99.90
44767;DHT22;30487;48.716;9.272;2022-12-07T00:51:17;4.10;99.90
44767;DHT22;30487;48.716;9.272;2022-12-07T00:53:43;4.10;99.90
44767;DHT22;30487;48.716;9.272;2022-12-07T00:56:12;4.00;99.90
44767;DHT22;30487;48.716;9.272;2022-12-07T00:58:38;4.10;99.90
44767;DHT22;30487;48.716;9.272;2022-12-07T01:01:05;4.10;99.90
44767;DHT22;30487;48.716;9.272;2022-12-07T01:03:31;4.10;99.90
44767;DHT22;30487;48.716;9.272;2022-12-07T01:05:57;4.10;99.90
44767;DHT22;30487;48.716;9.272;2022-12-07T01:08:24;4.10;99.90
44767;DHT22;30487;48.716;9.272;2022-12-07T01:11:04;4.10;99.90
44767;DHT22;30487;48.716;9.272;2022-12-07T01:13:31;4.10;99.90
44767;DHT22;30487;48.716;9.272;2022-12-07T01:16:02;4.10;99.90
44767;DHT22;30487;48.716;9.272;2022-12-07T01:18:29;4.10;99.90
44767;DHT22;30487;48.716;9.272;2022-12-07T01:21:13;4.00;99.90
44767;DHT22;30487;48.716;9.272;2022-12-07T01:23:39;4.00;99.90
44767;DHT22;30487;48.716;9.272;2022-12-07T01:26:09;4.10;99.90
44767;DHT22;30487;48.716;9.272;2022-12-07T01:28:35;4.00;99.90
44767;DHT22;30487;48.716;9.272;2022-12-07T01:31:01;4.00;99.90
44767;DHT22;30487;48.716;9.272;2022-12-07T01:33:30;4.00;99.90
44767;DHT22;30487;48.716;9.272;2022-12-07T01:36:04;4.00;99.90
44767;DHT22;30487;48.716;9.272;2022-12-07T01:38:31;4.00;99.90
44767;DHT22;30487;48.716;9.272;2022-12-07T01:40:56;4.00;99.90
44767;DHT22;30487;48.716;9.272;2022-12-07T01:43:24;4.00;99.90
44767;DHT22;30487;48.716;9.272;2022-12-07T01:45:50;4.00;99.90
44767;DHT22;30487;48.716;9.272;2022-12-07T01:48:19;4.00;99.90
44767;DHT22;30487;48.716;9.272;2022-12-07T01:50:48;4.00;99.90
44767;DHT22;30487;48.716;9.272;2022-12-07T01:53:14;3.90;99.90
44767;DHT22;30487;48.716;9.272;2022-12-07T01:55:42;4.00;99.90
44767;DHT22;30487;48.716;9.272;2022-12-07T01:58:11;3.90;99.90
44767;DHT22;30487;48.716;9.272;2022-12-07T02:00:38;3.90;99.90
44767;DHT22;30487;48.716;9.272;2022-12-07T02:03:09;3.90;99.90
44767;DHT22;30487;48.716;9.272;2022-12-07T02:05:38;3.90;99.90
44767;DHT22;30487;48.716;9.272;2022-12-07T02:08:06;3.90;99.90
44767;DHT22;30487;48.716;9.272;2022-12-07T02:10:33;3.90;99.90
44767;DHT22;30487;48.716;9.272;2022-12-07T02:13:12;3.90;99.90
44767;DHT22;30487;48.716;9.272;2022-12-07T02:30:08;3.80;99.90
44767;DHT22;30487;48.716;9.272;2022-12-07T02:35:19;3.70;99.90
44767;DHT22;30487;48.716;9.272;2022-12-07T02:40:35;3.70;99.90
44767;DHT22;30487;48.716;9.272;2022-12-07T02:43:14;3.70;99.90
44767;DHT22;30487;48.716;9.272;2022-12-07T02:45:42;3.70;99.90
44767;DHT22;30487;48.716;9.272;2022-12-07T02:48:10;3.70;99.90
44767;DHT22;30487;48.716;9.272;2022-12-07T02:50:37;3.80;99.90
44767;DHT22;30487;48.716;9.272;2022-12-07T02:53:02;3.70;99.90
44767;DHT22;30487;48.716;9.272;2022-12-07T02:55:33;3.70;99.90
44767;DHT22;30487;48.716;9.272;2022-12-07T02:58:18;3.70;99.90
44767;DHT22;30487;48.716;9.272;2022-12-07T03:03:46;3.70;99.90
44767;DHT22;30487;48.716;9.272;2022-12-07T03:06:22;3.60;99.90
44767;DHT22;30487;48.716;9.272;2022-12-07T03:12:00;3.60;99.90
44767;DHT22;30487;48.716;9.272;2022-12-07T03:14:32;3.60;99.90
44767;DHT22;30487;48.716;9.272;2022-12-07T03:17:10;3.70;99.90
44767;DHT22;30487;48.716;9.272;2022-12-07T03:19:37;3.60;99.90
44767;DHT22;30487;48.716;9.272;2022-12-07T03:22:10;3.60;99.90
44767;DHT22;30487;48.716;9.272;2022-12-07T03:24:44;3.60;99.90
44767;DHT22;30487;48.716;9.272;2022-12-07T03:27:16;3.60;99.90
44767;DHT22;30487;48.716;9.272;2022-12-07T03:29:46;3.60;99.90
44767;DHT22;30487;48.716;9.272;2022-12-07T03:32:26;3.60;99.90
44767;DHT22;30487;48.716;9.272;2022-12-07T03:35:21;3.60;99.90
44767;DHT22;30487;48.716;9.272;2022-12-07T03:37:54;3.70;99.90
44767;DHT22;30487;48.716;9.272;2022-12-07T03:40:30;3.60;99.90
44767;DHT22;30487;48.716;9.272;2022-12-07T03:42:59;3.60;99.90
44767;DHT22;30487;48.716;9.272;2022-12-07T03:45:39;3.60;99.90
44767;DHT22;30487;48.716;9.272;2022-12-07T03:50:45;3.70;99.90
44767;DHT22;30487;48.716;9.272;2022-12-07T03:53:19;3.60;99.90
44767;DHT22;30487;48.716;9.272;2022-12-07T03:55:47;3.60;99.90
44767;DHT22;30487;48.716;9.272;2022-12-07T03:58:17;3.60;99.90
44767;DHT22;30487;48.716;9.272;2022-12-07T04:00:45;3.60;99.90
44767;DHT22;30487;48.716;9.272;2022-12-07T04:03:11;3.60;99.90
44767;DHT22;30487;48.716;9.272;2022-12-07T04:05:37;3.60;99.90
44767;DHT22;30487;48.716;9.272;2022-12-07T04:08:03;3.60;99.90
44767;DHT22;30487;48.716;9.272;2022-12-07T04:10:29;3.60;99.90
44767;DHT22;30487;48.716;9.272;2022-12-07T04:12:54;3.60;99.90
44767;DHT22;30487;48.716;9.272;2022-12-07T04:15:20;3.60;99.90
44767;DHT22;30487;48.716;9.272;2022-12-07T04:17:46;3.60;99.90
44767;DHT22;30487;48.716;9.272;2022-12-07T04:20:11;3.60;99.90
44767;DHT22;30487;48.716;9.272;2022-12-07T04:22:37;3.60;99.90
44767;DHT22;30487;48.716;9.272;2022-12-07T04:25:03;3.60;99.90
44767;DHT22;30487;48.716;9.272;2022-12-07T04:27:29;3.60;99.90
44767;DHT22;30487;48.716;9.272;2022-12-07T04:29:54;3.60;99.90
44767;DHT22;30487;48.716;9.272;2022-12-07T04:32:21;3.60;99.90
44767;DHT22;30487;48.716;9.272;2022-12-07T04:34:47;3.50;99.90
44767;DHT22;30487;48.716;9.272;2022-12-07T04:37:12;3.50;99.90
44767;DHT22;30487;48.716;9.272;2022-12-07T04:39:38;3.50;99.90
44767;DHT22;30487;48.716;9.272;2022-12-07T04:42:03;3.50;99.90
44767;DHT22;30487;48.716;9.272;2022-12-07T04:44:29;3.50;99.90
44767;DHT22;30487;48.716;9.272;2022-12-07T04:46:56;3.50;99.90
44767;DHT22;30487;48.716;9.272;2022-12-07T04:49:23;3.50;99.90
44767;DHT22;30487;48.716;9.272;2022-12-07T04:51:48;3.50;99.90
44767;DHT22;30487;48.716;9.272;2022-12-07T04:54:15;3.50;99.90
44767;DHT22;30487;48.716;9.272;2022-12-07T04:56:41;3.50;99.90
44767;DHT22;30487;48.716;9.272;2022-12-07T04:59:07;3.50;99.90
44767;DHT22;30487;48.716;9.272;2022-12-07T05:01:34;3.50;99.90
44767;DHT22;30487;48.716;9.272;2022-12-07T05:04:00;3.50;99.90
44767;DHT22;30487;48.716;9.272;2022-12-07T05:06:25;3.50;99.90
44767;DHT22;30487;48.716;9.272;2022-12-07T05:08:51;3.50;99.90
44767;DHT22;30487;48.716;9.272;2022-12-07T05:11:16;3.50;99.90
44767;DHT22;30487;48.716;9.272;2022-12-07T05:14:02;3.50;99.90
44767;DHT22;30487;48.716;9.272;2022-12-07T05:16:28;3.50;99.90
44767;DHT22;30487;48.716;9.272;2022-12-07T05:18:54;3.50;99.90
44767;DHT22;30487;48.716;9.272;2022-12-07T05:21:19;3.50;99.90
44767;DHT22;30487;48.716;9.272;2022-12-07T05:23:45;3.50;99.90
44767;DHT22;30487;48.716;9.272;2022-12-07T05:26:10;3.50;99.90
44767;DHT22;30487;48.716;9.272;2022-12-07T05:28:36;3.50;99.90
44767;DHT22;30487;48.716;9.272;2022-12-07T05:31:02;3.50;99.90
44767;DHT22;30487;48.716;9.272;2022-12-07T05:33:28;3.50;99.90
44767;DHT22;30487;48.716;9.272;2022-12-07T05:35:54;3.50;99.90
44767;DHT22;30487;48.716;9.272;2022-12-07T05:38:19;3.50;99.90
44767;DHT22;30487;48.716;9.272;2022-12-07T05:40:45;3.40;99.90
44767;DHT22;30487;48.716;9.272;2022-12-07T05:43:10;3.40;99.90
44767;DHT22;30487;48.716;9.272;2022-12-07T05:45:36;3.40;99.90
44767;DHT22;30487;48.716;9.272;2022-12-07T05:48:02;3.50;99.90
44767;DHT22;30487;48.716;9.272;2022-12-07T05:50:27;3.50;99.90
44767;DHT22;30487;48.716;9.272;2022-12-07T05:52:53;3.60;99.90
44767;DHT22;30487;48.716;9.272;2022-12-07T05:55:19;3.60;99.90
44767;DHT22;30487;48.716;9.272;2022-12-07T05:57:44;3.60;99.90
44767;DHT22;30487;48.716;9.272;2022-12-07T06:00:30;3.50;99.90
44767;DHT22;30487;48.716;9.272;2022-12-07T06:02:56;3.50;99.90
44767;DHT22;30487;48.716;9.272;2022-12-07T06:05:22;3.50;99.90
44767;DHT22;30487;48.716;9.272;2022-12-07T06:07:48;3.40;99.90
44767;DHT22;30487;48.716;9.272;2022-12-07T06:10:14;3.40;99.90
44767;DHT22;30487;48.716;9.272;2022-12-07T06:12:39;3.40;99.90
44767;DHT22;30487;48.716;9.272;2022-12-07T06:15:08;3.40;99.90
44767;DHT22;30487;48.716;9.272;2022-12-07T06:17:34;3.30;99.90
44767;DHT22;30487;48.716;9.272;2022-12-07T06:19:59;3.30;99.90
44767;DHT22;30487;48.716;9.272;2022-12-07T06:22:25;3.20;99.90
44767;DHT22;30487;48.716;9.272;2022-12-07T06:24:51;3.30;99.90
44767;DHT22;30487;48.716;9.272;2022-12-07T06:27:16;3.30;99.90
44767;DHT22;30487;48.716;9.272;2022-12-07T06:29:42;3.30;99.90
44767;DHT22;30487;48.716;9.272;2022-12-07T06:32:08;3.30;99.90
44767;DHT22;30487;48.716;9.272;2022-12-07T06:34:34;3.30;99.90
44767;DHT22;30487;48.716;9.272;2022-12-07T06:37:00;3.40;99.90
44767;DHT22;30487;48.716;9.272;2022-12-07T06:39:27;3.30;99.90
44767;DHT22;30487;48.716;9.272;2022-12-07T06:41:53;3.30;99.90
44767;DHT22;30487;48.716;9.272;2022-12-07T06:44:19;3.30;99.90
44767;DHT22;30487;48.716;9.272;2022-12-07T06:46:45;3.30;99.90
44767;DHT22;30487;48.716;9.272;2022-12-07T06:49:11;3.20;99.90
44767;DHT22;30487;48.716;9.272;2022-12-07T06:51:37;3.20;99.90
44767;DHT22;30487;48.716;9.272;2022-12-07T06:54:07;3.20;99.90
44767;DHT22;30487;48.716;9.272;2022-12-07T06:56:32;3.20;99.90
44767;DHT22;30487;48.716;9.272;2022-12-07T06:58:58;3.20;99.90
44767;DHT22;30487;48.716;9.272;2022-12-07T07:01:23;3.10;99.90
44767;DHT22;30487;48.716;9.272;2022-12-07T07:03:49;3.10;99.90
44767;DHT22;30487;48.716;9.272;2022-12-07T07:06:15;3.10;99.90
44767;DHT22;30487;48.716;9.272;2022-12-07T07:08:41;3.10;99.90
44767;DHT22;30487;48.716;9.272;2022-12-07T07:11:08;3.10;99.90
44767;DHT22;30487;48.716;9.272;2022-12-07T07:13:34;3.10;99.90
44767;DHT22;30487;48.716;9.272;2022-12-07T07:16:00;3.10;99.90
44767;DHT22;30487;48.716;9.272;2022-12-07T07:18:26;3.10;99.90
44767;DHT22;30487;48.716;9.272;2022-12-07T07:20:52;3.10;99.90
44767;DHT22;30487;48.716;9.272;2022-12-07T07:23:18;3.20;99.90
44767;DHT22;30487;48.716;9.272;2022-12-07T07:25:44;3.20;99.90
44767;DHT22;30487;48.716;9.272;2022-12-07T07:28:10;3.20;99.90
44767;DHT22;30487;48.716;9.272;2022-12-07T07:30:36;3.10;99.90
44767;DHT22;30487;48.716;9.272;2022-12-07T07:33:03;3.10;99.90
44767;DHT22;30487;48.716;9.272;2022-12-07T07:35:31;3.10;99.90
44767;DHT22;30487;48.716;9.272;2022-12-07T07:37:57;3.10;99.90
44767;DHT22;30487;48.716;9.272;2022-12-07T07:40:23;3.10;99.90
44767;DHT22;30487;48.716;9.272;2022-12-07T07:42:51;3.10;99.90
44767;DHT22;30487;48.716;9.272;2022-12-07T07:45:19;3.20;99.90
44767;DHT22;30487;48.716;9.272;2022-12-07T07:47:44;3.30;99.90
44767;DHT22;30487;48.716;9.272;2022-12-07T07:50:10;3.40;99.90
44767;DHT22;30487;48.716;9.272;2022-12-07T07:52:36;3.60;99.90
44767;DHT22;30487;48.716;9.272;2022-12-07T07:55:02;3.80;99.90
44767;DHT22;30487;48.716;9.272;2022-12-07T07:57:28;3.80;99.90
44767;DHT22;30487;48.716;9.272;2022-12-07T07:59:53;3.90;99.90
44767;DHT22;30487;48.716;9.272;2022-12-07T08:02:22;3.90;99.90
44767;DHT22;30487;48.716;9.272;2022-12-07T08:04:47;3.90;99.90
44767;DHT22;30487;48.716;9.272;2022-12-07T08:07:14;3.80;99.90
44767;DHT22;30487;48.716;9.272;2022-12-07T08:09:40;3.80;99.90
44767;DHT22;30487;48.716;9.272;2022-12-07T08:12:06;3.80;99.90
44767;DHT22;30487;48.716;9.272;2022-12-07T08:14:32;3.80;99.90
44767;DHT22;30487;48.716;9.272;2022-12-07T08:16:58;3.80;99.90
44767;DHT22;30487;48.716;9.272;2022-12-07T08:19:24;3.80;99.90
44767;DHT22;30487;48.716;9.272;2022-12-07T08:21:49;3.80;99.90
44767;DHT22;30487;48.716;9.272;2022-12-07T08:24:15;3.80;99.90
44767;DHT22;30487;48.716;9.272;2022-12-07T08:26:41;3.80;99.90
44767;DHT22;30487;48.716;9.272;2022-12-07T08:29:07;3.80;99.90
44767;DHT22;30487;48.716;9.272;2022-12-07T08:31:32;3.80;99.90
44767;DHT22;30487;48.716;9.272;2022-12-07T08:33:58;3.80;99.90
44767;DHT22;30487;48.716;9.272;2022-12-07T08:36:24;3.80;99.90
44767;DHT22;30487;48.716;9.272;2022-12-07T08:38:50;3.80;99.90
44767;DHT22;30487;48.716;9.272;2022-12-07T08:41:15;3.80;99.90
44767;DHT22;30487;48.716;9.272;2022-12-07T08:43:41;3.80;99.90
44767;DHT22;30487;48.716;9.272;2022-12-07T08:49:04;4.00;99.90
44767;DHT22;30487;48.716;9.272;2022-12-07T08:51:31;4.00;99.90
44767;DHT22;30487;48.716;9.272;2022-12-07T08:53:58;4.10;99.90
44767;DHT22;30487;48.716;9.272;2022-12-07T08:56:26;4.10;99.90
44767;DHT22;30487;48.716;9.272;2022-12-07T08:58:52;4.20;99.90
44767;DHT22;30487;48.716;9.272;2022-12-07T09:01:18;4.20;99.90
44767;DHT22;30487;48.716;9.272;2022-12-07T09:03:43;4.30;99.90
44767;DHT22;30487;48.716;9.272;2022-12-07T09:06:09;4.20;99.90
44767;DHT22;30487;48.716;9.272;2022-12-07T09:08:42;4.40;99.90
44767;DHT22;30487;48.716;9.272;2022-12-07T09:11:08;4.40;99.90
44767;DHT22;30487;48.716;9.272;2022-12-07T09:13:34;4.50;99.90
44767;DHT22;30487;48.716;9.272;2022-12-07T09:15:59;4.50;99.90
44767;DHT22;30487;48.716;9.272;2022-12-07T09:18:25;4.60;99.90
44767;DHT22;30487;48.716;9.272;2022-12-07T09:20:51;4.70;99.90
44767;DHT22;30487;48.716;9.272;2022-12-07T09:23:17;4.70;99.90
44767;DHT22;30487;48.716;9.272;2022-12-07T09:25:43;4.70;99.90
44767;DHT22;30487;48.716;9.272;2022-12-07T09:28:08;4.80;99.90
44767;DHT22;30487;48.716;9.272;2022-12-07T09:30:34;4.90;99.90
44767;DHT22;30487;48.716;9.272;2022-12-07T09:33:00;4.90;99.90
44767;DHT22;30487;48.716;9.272;2022-12-07T09:35:26;4.90;99.90
44767;DHT22;30487;48.716;9.272;2022-12-07T09:37:52;4.90;99.90
44767;DHT22;30487;48.716;9.272;2022-12-07T09:40:21;4.90;99.90
44767;DHT22;30487;48.716;9.272;2022-12-07T09:42:51;4.90;99.90
44767;DHT22;30487;48.716;9.272;2022-12-07T09:47:45;5.00;99.90
44767;DHT22;30487;48.716;9.272;2022-12-07T09:50:16;5.00;99.90
44767;DHT22;30487;48.716;9.272;2022-12-07T09:52:44;5.10;99.90
44767;DHT22;30487;48.716;9.272;2022-12-07T09:55:23;5.10;99.90
44767;DHT22;30487;48.716;9.272;2022-12-07T09:57:50;5.20;99.90
44767;DHT22;30487;48.716;9.272;2022-12-07T10:00:21;5.20;99.90
44767;DHT22;30487;48.716;9.272;2022-12-07T10:02:55;5.40;99.90
44767;DHT22;30487;48.716;9.272;2022-12-07T10:05:30;5.40;99.90
44767;DHT22;30487;48.716;9.272;2022-12-07T10:07:57;5.40;99.90
44767;DHT22;30487;48.716;9.272;2022-12-07T10:10:34;5.50;99.90
44767;DHT22;30487;48.716;9.272;2022-12-07T10:13:03;5.60;99.90
44767;DHT22;30487;48.716;9.272;2022-12-07T10:18:32;5.60;99.90
44767;DHT22;30487;48.716;9.272;2022-12-07T10:21:05;5.70;99.90
44767;DHT22;30487;48.716;9.272;2022-12-07T10:23:36;5.70;99.90
44767;DHT22;30487;48.716;9.272;2022-12-07T10:26:33;5.70;99.90
44767;DHT22;30487;48.716;9.272;2022-12-07T10:29:17;5.80;99.90
44767;DHT22;30487;48.716;9.272;2022-12-07T10:31:46;5.80;99.90
44767;DHT22;30487;48.716;9.272;2022-12-07T10:34:29;5.80;99.90
44767;DHT22;30487;48.716;9.272;2022-12-07T10:39:46;5.60;99.90
44767;DHT22;30487;48.716;9.272;2022-12-07T10:44:49;5.70;99.90
44767;DHT22;30487;48.716;9.272;2022-12-07T10:58:09;5.70;99.90
44767;DHT22;30487;48.716;9.272;2022-12-07T11:11:30;5.60;99.90
44767;DHT22;30487;48.716;9.272;2022-12-07T11:17:00;5.60;99.90
44767;DHT22;30487;48.716;9.272;2022-12-07T11:20:00;5.70;99.90
44767;DHT22;30487;48.716;9.272;2022-12-07T11:22:33;5.70;99.90
44767;DHT22;30487;48.716;9.272;2022-12-07T11:30:34;5.60;99.90
44767;DHT22;30487;48.716;9.272;2022-12-07T11:33:39;5.60;99.90
44767;DHT22;30487;48.716;9.272;2022-12-07T11:36:15;5.70;99.90
44767;DHT22;30487;48.716;9.272;2022-12-07T11:39:06;5.70;99.90
44767;DHT22;30487;48.716;9.272;2022-12-07T11:41:35;5.70;99.90
44767;DHT22;30487;48.716;9.272;2022-12-07T11:44:07;5.70;99.90
44767;DHT22;30487;48.716;9.272;2022-12-07T11:46:51;5.70;99.90
44767;DHT22;30487;48.716;9.272;2022-12-07T11:49:40;5.60;99.90
44767;DHT22;30487;48.716;9.272;2022-12-07T11:52:26;5.60;99.90
44767;DHT22;30487;48.716;9.272;2022-12-07T11:54:53;5.70;99.90
44767;DHT22;30487;48.716;9.272;2022-12-07T11:57:37;5.70;99.90
44767;DHT22;30487;48.716;9.272;2022-12-07T12:00:12;5.70;99.90
44767;DHT22;30487;48.716;9.272;2022-12-07T12:02:58;5.70;99.90
44767;DHT22;30487;48.716;9.272;2022-12-07T12:05:26;5.80;99.90
44767;DHT22;30487;48.716;9.272;2022-12-07T12:08:18;5.70;99.90
44767;DHT22;30487;48.716;9.272;2022-12-07T12:10:56;5.70;99.90
44767;DHT22;30487;48.716;9.272;2022-12-07T12:21:08;5.70;99.90
44767;DHT22;30487;48.716;9.272;2022-12-07T12:26:28;5.60;99.90
44767;DHT22;30487;48.716;9.272;2022-12-07T12:33:57;5.40;99.90
44767;DHT22;30487;48.716;9.272;2022-12-07T12:47:00;5.40;99.90
44767;DHT22;30487;48.716;9.272;2022-12-07T12:51:58;5.30;99.90
44767;DHT22;30487;48.716;9.272;2022-12-07T12:54:27;5.40;99.90
44767;DHT22;30487;48.716;9.272;2022-12-07T12:57:13;5.40;99.90
44767;DHT22;30487;48.716;9.272;2022-12-07T13:02:23;5.30;99.90
44767;DHT22;30487;48.716;9.272;2022-12-07T13:15:43;5.30;99.90
44767;DHT22;30487;48.716;9.272;2022-12-07T13:20:56;5.20;99.90
44767;DHT22;30487;48.716;9.272;2022-12-07T13:23:32;5.20;99.90
44767;DHT22;30487;48.716;9.272;2022-12-07T13:31:37;5.20;99.90
44767;DHT22;30487;48.716;9.272;2022-12-07T13:34:05;5.20;99.90
44767;DHT22;30487;48.716;9.272;2022-12-07T13:36:51;5.20;99.90
44767;DHT22;30487;48.716;9.272;2022-12-07T13:41:45;5.30;99.90
44767;DHT22;30487;48.716;9.272;2022-12-07T13:44:15;5.30;99.90
44767;DHT22;30487;48.716;9.272;2022-12-07T13:47:05;5.30;99.90
44767;DHT22;30487;48.716;9.272;2022-12-07T13:49:37;5.30;99.90
44767;DHT22;30487;48.716;9.272;2022-12-07T13:54:59;5.20;99.90
44767;DHT22;30487;48.716;9.272;2022-12-07T13:57:26;5.20;99.90
44767;DHT22;30487;48.716;9.272;2022-12-07T13:59:53;5.20;99.90
44767;DHT22;30487;48.716;9.272;2022-12-07T14:02:32;5.20;99.90
44767;DHT22;30487;48.716;9.272;2022-12-07T14:05:14;5.20;99.90
44767;DHT22;30487;48.716;9.272;2022-12-07T14:12:50;5.20;99.90
44767;DHT22;30487;48.716;9.272;2022-12-07T14:15:25;5.20;99.90
44767;DHT22;30487;48.716;9.272;2022-12-07T14:17:53;5.10;99.90
44767;DHT22;30487;48.716;9.272;2022-12-07T14:20:36;5.20;99.90
44767;DHT22;30487;48.716;9.272;2022-12-07T14:23:02;5.20;99.90
44767;DHT22;30487;48.716;9.272;2022-12-07T14:25:45;5.20;99.90
44767;DHT22;30487;48.716;9.272;2022-12-07T14:28:33;5.20;99.90
44767;DHT22;30487;48.716;9.272;2022-12-07T14:30:59;5.20;99.90
44767;DHT22;30487;48.716;9.272;2022-12-07T14:33:26;5.20;99.90
44767;DHT22;30487;48.716;9.272;2022-12-07T14:35:52;5.20;99.90
44767;DHT22;30487;48.716;9.272;2022-12-07T14:38:23;5.20;99.90
44767;DHT22;30487;48.716;9.272;2022-12-07T14:40:51;5.20;99.90
44767;DHT22;30487;48.716;9.272;2022-12-07T14:43:18;5.20;99.90
44767;DHT22;30487;48.716;9.272;2022-12-07T14:45:44;5.20;99.90
44767;DHT22;30487;48.716;9.272;2022-12-07T14:48:14;5.20;99.90
44767;DHT22;30487;48.716;9.272;2022-12-07T14:50:44;5.10;99.90
44767;DHT22;30487;48.716;9.272;2022-12-07T14:53:14;5.20;99.90
44767;DHT22;30487;48.716;9.272;2022-12-07T14:55:40;5.10;99.90
44767;DHT22;30487;48.716;9.272;2022-12-07T14:58:05;5.10;99.90
44767;DHT22;30487;48.716;9.272;2022-12-07T15:00:31;5.10;99.90
44767;DHT22;30487;48.716;9.272;2022-12-07T15:02:59;5.10;99.90
44767;DHT22;30487;48.716;9.272;2022-12-07T15:05:25;5.00;99.90
44767;DHT22;30487;48.716;9.272;2022-12-07T15:07:51;5.00;99.90
44767;DHT22;30487;48.716;9.272;2022-12-07T15:10:23;5.00;99.90
44767;DHT22;30487;48.716;9.272;2022-12-07T15:12:49;5.00;99.90
44767;DHT22;30487;48.716;9.272;2022-12-07T15:15:15;4.90;99.90
44767;DHT22;30487;48.716;9.272;2022-12-07T15:17:41;4.90;99.90
44767;DHT22;30487;48.716;9.272;2022-12-07T15:20:11;4.90;99.90
44767;DHT22;30487;48.716;9.272;2022-12-07T15:22:37;4.90;99.90
44767;DHT22;30487;48.716;9.272;2022-12-07T15:25:03;4.90;99.90
44767;DHT22;30487;48.716;9.272;2022-12-07T15:27:30;4.90;99.90
44767;DHT22;30487;48.716;9.272;2022-12-07T15:29:56;4.90;99.90
44767;DHT22;30487;48.716;9.272;2022-12-07T15:32:21;4.90;99.90
44767;DHT22;30487;48.716;9.272;2022-12-07T15:34:48;4.90;99.90
44767;DHT22;30487;48.716;9.272;2022-12-07T15:37:15;4.90;99.90
44767;DHT22;30487;48.716;9.272;2022-12-07T15:39:41;4.80;99.90
44767;DHT22;30487;48.716;9.272;2022-12-07T15:42:07;4.80;99.90
44767;DHT22;30487;48.716;9.272;2022-12-07T15:44:33;4.80;99.90
44767;DHT22;30487;48.716;9.272;2022-12-07T15:47:17;4.70;99.90
44767;DHT22;30487;48.716;9.272;2022-12-07T15:49:43;4.70;99.90
44767;DHT22;30487;48.716;9.272;2022-12-07T15:52:09;4.70;99.90
44767;DHT22;30487;48.716;9.272;2022-12-07T15:54:35;4.70;99.90
44767;DHT22;30487;48.716;9.272;2022-12-07T15:57:01;4.70;99.90
44767;DHT22;30487;48.716;9.272;2022-12-07T15:59:28;4.70;99.90
44767;DHT22;30487;48.716;9.272;2022-12-07T16:01:54;4.70;99.90
44767;DHT22;30487;48.716;9.272;2022-12-07T16:04:20;4.70;99.90
44767;DHT22;30487;48.716;9.272;2022-12-07T16:06:45;4.70;99.90
44767;DHT22;30487;48.716;9.272;2022-12-07T16:09:16;4.70;99.90
44767;DHT22;30487;48.716;9.272;2022-12-07T16:11:41;4.60;99.90
44767;DHT22;30487;48.716;9.272;2022-12-07T16:14:07;4.70;99.90
44767;DHT22;30487;48.716;9.272;2022-12-07T16:16:32;4.60;99.90
44767;DHT22;30487;48.716;9.272;2022-12-07T16:18:58;4.60;99.90
44767;DHT22;30487;48.716;9.272;2022-12-07T16:21:24;4.60;99.90
44767;DHT22;30487;48.716;9.272;2022-12-07T16:23:49;4.60;99.90
44767;DHT22;30487;48.716;9.272;2022-12-07T16:26:19;4.60;99.90
44767;DHT22;30487;48.716;9.272;2022-12-07T16:28:45;4.60;99.90
44767;DHT22;30487;48.716;9.272;2022-12-07T16:32:07;4.50;99.90
44767;DHT22;30487;48.716;9.272;2022-12-07T16:34:33;4.60;99.90
44767;DHT22;30487;48.716;9.272;2022-12-07T16:36:58;4.50;99.90
44767;DHT22;30487;48.716;9.272;2022-12-07T16:39:24;4.50;99.90
44767;DHT22;30487;48.716;9.272;2022-12-07T16:41:50;4.50;99.90
44767;DHT22;30487;48.716;9.272;2022-12-07T16:44:16;4.40;99.90
44767;DHT22;30487;48.716;9.272;2022-12-07T16:46:42;4.40;99.90
44767;DHT22;30487;48.716;9.272;2022-12-07T16:49:12;4.40;99.90
44767;DHT22;30487;48.716;9.272;2022-12-07T16:51:38;4.30;99.90
44767;DHT22;30487;48.716;9.272;2022-12-07T16:54:04;4.40;99.90
44767;DHT22;30487;48.716;9.272;2022-12-07T16:56:30;4.40;99.90
44767;DHT22;30487;48.716;9.272;2022-12-07T16:58:58;4.30;99.90
44767;DHT22;30487;48.716;9.272;2022-12-07T17:01:23;4.30;99.90
44767;DHT22;30487;48.716;9.272;2022-12-07T17:03:49;4.30;99.90
44767;DHT22;30487;48.716;9.272;2022-12-07T17:06:21;4.30;99.90
44767;DHT22;30487;48.716;9.272;2022-12-07T17:08:47;4.30;99.90
44767;DHT22;30487;48.716;9.272;2022-12-07T17:11:18;4.30;99.90
44767;DHT22;30487;48.716;9.272;2022-12-07T17:13:44;4.20;99.90
44767;DHT22;30487;48.716;9.272;2022-12-07T17:16:30;4.20;99.90
44767;DHT22;30487;48.716;9.272;2022-12-07T17:18:56;4.20;99.90
44767;DHT22;30487;48.716;9.272;2022-12-07T17:21:22;4.20;99.90
44767;DHT22;30487;48.716;9.272;2022-12-07T17:23:48;4.30;99.90
44767;DHT22;30487;48.716;9.272;2022-12-07T17:26:24;4.20;99.90
44767;DHT22;30487;48.716;9.272;2022-12-07T17:28:50;4.10;99.90
44767;DHT22;30487;48.716;9.272;2022-12-07T17:31:17;4.10;99.90
44767;DHT22;30487;48.716;9.272;2022-12-07T17:33:43;4.10;99.90
44767;DHT22;30487;48.716;9.272;2022-12-07T17:36:14;4.10;99.90
44767;DHT22;30487;48.716;9.272;2022-12-07T17:38:40;4.10;99.90
44767;DHT22;30487;48.716;9.272;2022-12-07T17:41:14;4.00;99.90
44767;DHT22;30487;48.716;9.272;2022-12-07T17:44:04;4.00;99.90
44767;DHT22;30487;48.716;9.272;2022-12-07T17:46:31;4.10;99.90
44767;DHT22;30487;48.716;9.272;2022-12-07T17:48:58;4.10;99.90
44767;DHT22;30487;48.716;9.272;2022-12-07T17:51:24;4.10;99.90
44767;DHT22;30487;48.716;9.272;2022-12-07T17:54:09;4.10;99.90
44767;DHT22;30487;48.716;9.272;2022-12-07T17:56:35;4.10;99.90
44767;DHT22;30487;48.716;9.272;2022-12-07T17:59:01;4.00;99.90
44767;DHT22;30487;48.716;9.272;2022-12-07T18:01:27;4.10;99.90
44767;DHT22;30487;48.716;9.272;2022-12-07T18:03:52;4.00;99.90
44767;DHT22;30487;48.716;9.272;2022-12-07T18:06:18;3.90;99.90
44767;DHT22;30487;48.716;9.272;2022-12-07T18:08:43;3.90;99.90
44767;DHT22;30487;48.716;9.272;2022-12-07T18:11:09;3.90;99.90